• Join FlightAware (Why Join?)
  • Login
  • US Flag 
02:47PM EDT


 

Airport Tracker/Info


-or-


 

Live Flight TrackerFlight Track Log ✈ JZA8196 ✈ 09-Oct-2013 ✈ CYVR - CYKA

Flight Track Log - Related Links

Times and Time Zones

All times are in EDT time to prevent confusion due to time zone crossing. See the JZA8196 flight status page for this flight to view local times or setup timezone preferences in your user account.

Time Position Orientation Groundspeed Altitude Reporting Facility
EDT Latitude Longitude Course Direction KTS MPH feet Rate Location/Type
09:10PM 49.1667 -123.1667 37° Northeast 110 127 600  Level Vancouver Center
09:11PM 49.1667 -123.1167 90° East 130 150 1,900 1,260 Climbing Vancouver Center
09:12PM 49.1500 -123.0667 117° Southeast 160 184 3,200 1,320 Climbing Vancouver Center
09:13PM 49.1667 -122.9833 73° East 150 173 4,600 1,320 Climbing Vancouver Center
09:14PM 49.3984 -122.8294 36° Northeast  Level Estimated
09:14PM 49.2000 -122.9333 44° Northeast 150 173 5,900  Level Vancouver Center
09:15PM 49.4494 -122.7401 44° Northeast  Level Estimated
09:15PM 49.2333 -122.9000 33° Northeast 160 184 7,100  Level Vancouver Center
09:16PM 49.5003 -122.6507 37° Northeast  Level Estimated
09:16PM 49.2667 -122.8833 18° North 160 184 8,000  Level Vancouver Center
09:17PM 49.3167 -122.8333 33° Northeast 190 219 8,500 720 Climbing Vancouver Center
09:18PM 49.3667 -122.7667 41° Northeast 200 230 9,500 900 Climbing Vancouver Center
09:19PM 49.4167 -122.7167 33° Northeast 200 230 10,400 900 Climbing Vancouver Center
09:20PM 49.4500 -122.6667 44° Northeast 210 242 11,400 960 Climbing Vancouver Center
09:21PM 49.5000 -122.6167 33° Northeast 210 242 12,400 900 Climbing Vancouver Center
09:22PM 49.5500 -122.5667 33° Northeast 210 242 13,200 900 Climbing Vancouver Center
09:23PM 49.6000 -122.4833 47° Northeast 210 242 14,200 900 Climbing Vancouver Center
09:24PM 49.6333 -122.4333 44° Northeast 210 242 15,100 900 Climbing Vancouver Center
09:25PM 49.6833 -122.3833 33° Northeast 210 242 16,000 780 Climbing Vancouver Center
09:26PM 49.7333 -122.3333 33° Northeast 210 242 16,700 720 Climbing Vancouver Center
09:27PM 49.7833 -122.2500 47° Northeast 210 242 17,500 600 Climbing Vancouver Center
09:28PM 49.8167 -122.2000 44° Northeast 220 253 17,900 420 Climbing Vancouver Center
09:29PM 49.8667 -122.1333 41° Northeast 220 253 18,400 480 Climbing Vancouver Center
09:30PM 49.9167 -122.0667 41° Northeast 220 253 18,900 300 Climbing Vancouver Center
09:31PM 49.9667 -122.0000 41° Northeast 230 265 19,000  Climbing Vancouver Center
09:32PM 50.0167 -121.9333 41° Northeast 250 288 19,000  Level Vancouver Center
09:33PM 50.0667 -121.8500 47° Northeast 260 299 19,000  Level Vancouver Center
09:34PM 50.1333 -121.7667 39° Northeast 270 311 19,000 -300 Level Vancouver Center
09:35PM 50.1833 -121.6833 47° Northeast 280 322 18,500 -960 Descending Vancouver Center
09:36PM 50.2500 -121.6000 39° Northeast 300 345 17,100 -1,320 Descending Vancouver Center
09:37PM 50.3167 -121.5167 39° Northeast 300 345 15,900 -1,200 Descending Vancouver Center
09:38PM 50.3833 -121.4500 33° Northeast 300 345 14,800 -1,080 Descending Vancouver Center
09:39PM 50.4500 -121.3667 39° Northeast 300 345 13,800 -1,020 Descending Vancouver Center
09:40PM 50.5000 -121.2833 47° Northeast 300 345 12,800 -1,020 Descending Vancouver Center
09:41PM 50.5667 -121.1667 48° Northeast 290 334 11,800 -1,200 Descending Vancouver Center
09:42PM 50.6167 -121.0833 47° Northeast 270 311 10,500 -1,440 Descending Vancouver Center
09:43PM 50.6333 -121.0000 72° East 250 288 9,000 -1,620 Descending Vancouver Center
09:44PM 50.6667 -120.9000 62° Northeast 240 276 7,300 -1,620 Descending Vancouver Center
09:45PM 50.7167 -120.8167 47° Northeast 240 276 5,800 -1,380 Descending Vancouver Center
09:46PM 50.7333 -120.7167 75° East 230 265 4,600 -1,140 Descending Vancouver Center
09:47PM 50.7167 -120.6333 108° East 200 230 3,600 -1,020 Descending Vancouver Center
09:48PM 50.7167 -120.5500 90° East 170 196 2,600 -1,020 Descending Vancouver Center